sensor_id;sensor_type;location;lat;lon;timestamp;pressure;altitude;pressure_sealevel;temperature;humidity
68793;BME280;55778;54.346;10.210;2023-03-31T00:00:44;99701.50;;;9.42;100.00
68793;BME280;55778;54.346;10.210;2023-03-31T00:03:11;99707.47;;;9.54;100.00
68793;BME280;55778;54.346;10.210;2023-03-31T00:05:37;99702.03;;;9.54;100.00
68793;BME280;55778;54.346;10.210;2023-03-31T00:08:02;99711.88;;;9.47;100.00
68793;BME280;55778;54.346;10.210;2023-03-31T00:10:32;99704.75;;;9.54;100.00
68793;BME280;55778;54.346;10.210;2023-03-31T00:12:59;99704.13;;;9.68;100.00
68793;BME280;55778;54.346;10.210;2023-03-31T00:15:25;99695.44;;;9.56;100.00
68793;BME280;55778;54.346;10.210;2023-03-31T00:17:51;99703.44;;;9.58;100.00
68793;BME280;55778;54.346;10.210;2023-03-31T00:20:17;99701.41;;;9.68;100.00
68793;BME280;55778;54.346;10.210;2023-03-31T00:22:42;99691.19;;;9.62;100.00
68793;BME280;55778;54.346;10.210;2023-03-31T00:25:12;99695.59;;;9.63;100.00
68793;BME280;55778;54.346;10.210;2023-03-31T00:27:41;99692.75;;;9.72;100.00
68793;BME280;55778;54.346;10.210;2023-03-31T00:30:09;99685.25;;;9.66;100.00
68793;BME280;55778;54.346;10.210;2023-03-31T00:32:34;99683.84;;;9.54;100.00
68793;BME280;55778;54.346;10.210;2023-03-31T00:35:00;99679.09;;;9.48;100.00
68793;BME280;55778;54.346;10.210;2023-03-31T00:37:27;99680.13;;;9.55;100.00
68793;BME280;55778;54.346;10.210;2023-03-31T00:39:52;99680.09;;;9.47;100.00
68793;BME280;55778;54.346;10.210;2023-03-31T00:42:18;99673.13;;;9.45;100.00
68793;BME280;55778;54.346;10.210;2023-03-31T00:47:53;99675.50;;;9.40;100.00
68793;BME280;55778;54.346;10.210;2023-03-31T00:50:23;99673.25;;;9.35;100.00
68793;BME280;55778;54.346;10.210;2023-03-31T00:52:55;99668.00;;;9.34;100.00
68793;BME280;55778;54.346;10.210;2023-03-31T00:55:26;99667.03;;;9.51;100.00
68793;BME280;55778;54.346;10.210;2023-03-31T00:57:54;99663.47;;;9.58;100.00
68793;BME280;55778;54.346;10.210;2023-03-31T01:00:22;99664.94;;;9.37;100.00
68793;BME280;55778;54.346;10.210;2023-03-31T01:02:53;99659.06;;;9.57;100.00
68793;BME280;55778;54.346;10.210;2023-03-31T01:05:41;99661.78;;;9.57;100.00
68793;BME280;55778;54.346;10.210;2023-03-31T01:08:07;99660.25;;;9.55;100.00
68793;BME280;55778;54.346;10.210;2023-03-31T01:10:39;99653.63;;;9.49;100.00
68793;BME280;55778;54.346;10.210;2023-03-31T01:13:10;99656.50;;;9.56;100.00
68793;BME280;55778;54.346;10.210;2023-03-31T01:15:37;99649.38;;;9.63;100.00
68793;BME280;55778;54.346;10.210;2023-03-31T01:18:04;99642.41;;;9.60;100.00
68793;BME280;55778;54.346;10.210;2023-03-31T01:34:50;99628.28;;;9.57;100.00
68793;BME280;55778;54.346;10.210;2023-03-31T01:59:03;99611.59;;;9.44;100.00
68793;BME280;55778;54.346;10.210;2023-03-31T02:02:04;99609.78;;;9.52;100.00
68793;BME280;55778;54.346;10.210;2023-03-31T02:04:35;99601.78;;;9.51;100.00
68793;BME280;55778;54.346;10.210;2023-03-31T02:07:07;99596.19;;;9.68;100.00
68793;BME280;55778;54.346;10.210;2023-03-31T02:09:40;99599.22;;;9.57;100.00
68793;BME280;55778;54.346;10.210;2023-03-31T02:12:10;99596.53;;;9.65;100.00
68793;BME280;55778;54.346;10.210;2023-03-31T02:14:38;99596.69;;;9.72;100.00
68793;BME280;55778;54.346;10.210;2023-03-31T02:17:06;99594.47;;;9.67;100.00
68793;BME280;55778;54.346;10.210;2023-03-31T02:19:37;99590.06;;;9.66;100.00
68793;BME280;55778;54.346;10.210;2023-03-31T02:22:07;99590.91;;;9.67;100.00
68793;BME280;55778;54.346;10.210;2023-03-31T02:24:35;99582.75;;;9.51;100.00
68793;BME280;55778;54.346;10.210;2023-03-31T02:27:21;99578.66;;;9.63;100.00
68793;BME280;55778;54.346;10.210;2023-03-31T02:29:47;99585.31;;;9.68;100.00
68793;BME280;55778;54.346;10.210;2023-03-31T02:32:20;99587.31;;;9.58;100.00
68793;BME280;55778;54.346;10.210;2023-03-31T02:34:47;99583.94;;;9.56;100.00
68793;BME280;55778;54.346;10.210;2023-03-31T02:37:13;99573.72;;;9.50;100.00
68793;BME280;55778;54.346;10.210;2023-03-31T02:39:40;99573.53;;;9.60;100.00
68793;BME280;55778;54.346;10.210;2023-03-31T02:42:08;99564.56;;;9.59;100.00
68793;BME280;55778;54.346;10.210;2023-03-31T02:44:38;99573.03;;;9.48;100.00
68793;BME280;55778;54.346;10.210;2023-03-31T02:47:07;99561.16;;;9.57;100.00
68793;BME280;55778;54.346;10.210;2023-03-31T02:49:34;99555.03;;;9.71;100.00
68793;BME280;55778;54.346;10.210;2023-03-31T03:10:52;99534.97;;;9.64;100.00
68793;BME280;55778;54.346;10.210;2023-03-31T03:13:32;99538.03;;;9.61;100.00
68793;BME280;55778;54.346;10.210;2023-03-31T03:16:04;99531.06;;;9.51;100.00
68793;BME280;55778;54.346;10.210;2023-03-31T03:18:33;99525.81;;;9.49;100.00
68793;BME280;55778;54.346;10.210;2023-03-31T03:20:58;99530.88;;;9.36;100.00
68793;BME280;55778;54.346;10.210;2023-03-31T03:23:23;99529.19;;;9.51;100.00
68793;BME280;55778;54.346;10.210;2023-03-31T03:25:49;99522.38;;;9.55;100.00
68793;BME280;55778;54.346;10.210;2023-03-31T03:28:15;99525.47;;;9.52;100.00
68793;BME280;55778;54.346;10.210;2023-03-31T03:30:41;99520.88;;;9.61;100.00
68793;BME280;55778;54.346;10.210;2023-03-31T03:33:06;99517.09;;;9.54;100.00
68793;BME280;55778;54.346;10.210;2023-03-31T03:35:33;99514.56;;;9.44;100.00
68793;BME280;55778;54.346;10.210;2023-03-31T03:37:58;99516.78;;;9.49;100.00
68793;BME280;55778;54.346;10.210;2023-03-31T03:40:24;99514.56;;;9.36;100.00
68793;BME280;55778;54.346;10.210;2023-03-31T03:42:50;99510.16;;;9.43;100.00
68793;BME280;55778;54.346;10.210;2023-03-31T03:45:15;99513.88;;;9.58;100.00
68793;BME280;55778;54.346;10.210;2023-03-31T03:47:41;99512.88;;;9.35;100.00
68793;BME280;55778;54.346;10.210;2023-03-31T03:50:07;99508.44;;;9.42;100.00
68793;BME280;55778;54.346;10.210;2023-03-31T03:52:32;99507.63;;;9.42;100.00
68793;BME280;55778;54.346;10.210;2023-03-31T03:54:58;99503.69;;;9.28;100.00
68793;BME280;55778;54.346;10.210;2023-03-31T03:57:23;99505.53;;;9.28;100.00
68793;BME280;55778;54.346;10.210;2023-03-31T03:59:48;99501.28;;;9.33;100.00
68793;BME280;55778;54.346;10.210;2023-03-31T04:02:14;99496.88;;;9.48;100.00
68793;BME280;55778;54.346;10.210;2023-03-31T04:04:39;99497.56;;;9.58;100.00
68793;BME280;55778;54.346;10.210;2023-03-31T04:07:04;99491.28;;;9.50;100.00
68793;BME280;55778;54.346;10.210;2023-03-31T04:09:30;99490.44;;;9.57;100.00
68793;BME280;55778;54.346;10.210;2023-03-31T04:11:55;99491.78;;;9.61;100.00
68793;BME280;55778;54.346;10.210;2023-03-31T04:14:21;99487.53;;;9.59;100.00
68793;BME280;55778;54.346;10.210;2023-03-31T04:16:46;99480.25;;;9.59;100.00
68793;BME280;55778;54.346;10.210;2023-03-31T04:19:13;99481.44;;;9.49;100.00
68793;BME280;55778;54.346;10.210;2023-03-31T04:21:41;99481.25;;;9.58;100.00
68793;BME280;55778;54.346;10.210;2023-03-31T04:24:12;99471.75;;;9.46;100.00
68793;BME280;55778;54.346;10.210;2023-03-31T04:26:45;99472.94;;;9.52;100.00
68793;BME280;55778;54.346;10.210;2023-03-31T04:29:15;99463.91;;;9.51;100.00
68793;BME280;55778;54.346;10.210;2023-03-31T04:31:41;99456.75;;;9.58;100.00
68793;BME280;55778;54.346;10.210;2023-03-31T04:34:08;99457.63;;;9.59;100.00
68793;BME280;55778;54.346;10.210;2023-03-31T04:36:41;99453.72;;;9.45;100.00
68793;BME280;55778;54.346;10.210;2023-03-31T04:39:12;99445.59;;;9.37;100.00
68793;BME280;55778;54.346;10.210;2023-03-31T04:41:37;99441.50;;;9.33;100.00
68793;BME280;55778;54.346;10.210;2023-03-31T04:44:03;99436.91;;;9.58;100.00
68793;BME280;55778;54.346;10.210;2023-03-31T04:46:29;99442.00;;;9.61;100.00
68793;BME280;55778;54.346;10.210;2023-03-31T04:48:55;99444.38;;;9.64;100.00
68793;BME280;55778;54.346;10.210;2023-03-31T04:51:20;99442.34;;;9.58;100.00
68793;BME280;55778;54.346;10.210;2023-03-31T04:53:45;99446.41;;;9.54;100.00
68793;BME280;55778;54.346;10.210;2023-03-31T04:56:11;99444.53;;;9.62;100.00
68793;BME280;55778;54.346;10.210;2023-03-31T04:58:37;99440.97;;;9.54;100.00
68793;BME280;55778;54.346;10.210;2023-03-31T05:01:03;99444.88;;;9.59;100.00
68793;BME280;55778;54.346;10.210;2023-03-31T05:03:30;99439.63;;;9.58;100.00
68793;BME280;55778;54.346;10.210;2023-03-31T05:05:56;99441.31;;;9.59;100.00
68793;BME280;55778;54.346;10.210;2023-03-31T05:08:21;99433.00;;;9.52;100.00
68793;BME280;55778;54.346;10.210;2023-03-31T05:10:46;99430.59;;;9.57;100.00
68793;BME280;55778;54.346;10.210;2023-03-31T05:13:12;99427.75;;;9.51;100.00
68793;BME280;55778;54.346;10.210;2023-03-31T05:15:38;99427.19;;;9.55;100.00
68793;BME280;55778;54.346;10.210;2023-03-31T05:18:04;99417.38;;;9.46;100.00
68793;BME280;55778;54.346;10.210;2023-03-31T05:20:29;99420.94;;;9.55;100.00
68793;BME280;55778;54.346;10.210;2023-03-31T05:22:55;99416.19;;;9.49;100.00
68793;BME280;55778;54.346;10.210;2023-03-31T05:25:20;99421.75;;;9.55;100.00
68793;BME280;55778;54.346;10.210;2023-03-31T05:27:47;99414.16;;;9.51;100.00
68793;BME280;55778;54.346;10.210;2023-03-31T05:30:13;99418.03;;;9.56;100.00
68793;BME280;55778;54.346;10.210;2023-03-31T05:32:39;99408.50;;;9.60;100.00
68793;BME280;55778;54.346;10.210;2023-03-31T05:35:04;99407.34;;;9.55;100.00
68793;BME280;55778;54.346;10.210;2023-03-31T05:37:30;99397.78;;;9.59;100.00
68793;BME280;55778;54.346;10.210;2023-03-31T05:39:56;99399.31;;;9.61;100.00
68793;BME280;55778;54.346;10.210;2023-03-31T05:42:22;99398.31;;;9.54;100.00
68793;BME280;55778;54.346;10.210;2023-03-31T05:44:47;99397.97;;;9.57;100.00
68793;BME280;55778;54.346;10.210;2023-03-31T05:47:13;99398.47;;;9.61;100.00
68793;BME280;55778;54.346;10.210;2023-03-31T05:49:38;99382.66;;;9.64;100.00
68793;BME280;55778;54.346;10.210;2023-03-31T05:52:05;99390.31;;;9.61;100.00
68793;BME280;55778;54.346;10.210;2023-03-31T05:54:31;99383.00;;;9.61;100.00
68793;BME280;55778;54.346;10.210;2023-03-31T05:56:57;99379.22;;;9.70;100.00
68793;BME280;55778;54.346;10.210;2023-03-31T05:59:22;99381.44;;;9.75;100.00
68793;BME280;55778;54.346;10.210;2023-03-31T06:01:48;99380.28;;;9.69;100.00
68793;BME280;55778;54.346;10.210;2023-03-31T06:04:13;99378.88;;;9.73;100.00
68793;BME280;55778;54.346;10.210;2023-03-31T06:06:39;99380.22;;;9.85;100.00
68793;BME280;55778;54.346;10.210;2023-03-31T06:09:05;99368.50;;;9.85;100.00
68793;BME280;55778;54.346;10.210;2023-03-31T06:11:30;99375.47;;;9.87;100.00
68793;BME280;55778;54.346;10.210;2023-03-31T06:13:56;99367.97;;;9.89;100.00
68793;BME280;55778;54.346;10.210;2023-03-31T06:16:21;99367.59;;;9.92;100.00
68793;BME280;55778;54.346;10.210;2023-03-31T06:18:46;99364.41;;;9.89;100.00
68793;BME280;55778;54.346;10.210;2023-03-31T06:21:15;99360.47;;;9.91;100.00
68793;BME280;55778;54.346;10.210;2023-03-31T06:23:41;99355.34;;;9.96;100.00
68793;BME280;55778;54.346;10.210;2023-03-31T06:26:11;99349.91;;;9.96;100.00
68793;BME280;55778;54.346;10.210;2023-03-31T06:28:37;99355.66;;;10.01;100.00
68793;BME280;55778;54.346;10.210;2023-03-31T06:31:05;99357.56;;;10.01;100.00
68793;BME280;55778;54.346;10.210;2023-03-31T06:33:31;99359.78;;;9.97;100.00
68793;BME280;55778;54.346;10.210;2023-03-31T06:35:57;99355.19;;;9.90;100.00
68793;BME280;55778;54.346;10.210;2023-03-31T06:38:24;99353.16;;;9.92;100.00
68793;BME280;55778;54.346;10.210;2023-03-31T06:40:50;99355.19;;;9.98;100.00
68793;BME280;55778;54.346;10.210;2023-03-31T06:43:16;99354.16;;;9.99;100.00
68793;BME280;55778;54.346;10.210;2023-03-31T06:45:41;99358.56;;;10.08;100.00
68793;BME280;55778;54.346;10.210;2023-03-31T06:48:06;99349.88;;;10.13;100.00
68793;BME280;55778;54.346;10.210;2023-03-31T06:50:32;99354.44;;;10.20;100.00
68793;BME280;55778;54.346;10.210;2023-03-31T06:52:57;99354.59;;;10.19;100.00
68793;BME280;55778;54.346;10.210;2023-03-31T06:55:24;99352.78;;;10.11;100.00
68793;BME280;55778;54.346;10.210;2023-03-31T06:57:49;99353.94;;;10.17;100.00
68793;BME280;55778;54.346;10.210;2023-03-31T07:00:15;99349.66;;;10.22;100.00
68793;BME280;55778;54.346;10.210;2023-03-31T07:02:41;99343.19;;;10.23;100.00
68793;BME280;55778;54.346;10.210;2023-03-31T07:05:07;99350.50;;;10.23;100.00
68793;BME280;55778;54.346;10.210;2023-03-31T07:07:34;99341.97;;;10.26;100.00
68793;BME280;55778;54.346;10.210;2023-03-31T07:09:59;99343.00;;;10.25;100.00
68793;BME280;55778;54.346;10.210;2023-03-31T07:12:25;99340.97;;;10.27;100.00
68793;BME280;55778;54.346;10.210;2023-03-31T07:14:50;99340.97;;;10.27;100.00
68793;BME280;55778;54.346;10.210;2023-03-31T07:17:16;99338.03;;;10.28;100.00
68793;BME280;55778;54.346;10.210;2023-03-31T07:19:42;99335.06;;;10.46;100.00
68793;BME280;55778;54.346;10.210;2023-03-31T07:22:12;99344.03;;;10.54;100.00
68793;BME280;55778;54.346;10.210;2023-03-31T07:24:37;99344.34;;;10.59;100.00
68793;BME280;55778;54.346;10.210;2023-03-31T07:27:03;99344.28;;;10.67;100.00
68793;BME280;55778;54.346;10.210;2023-03-31T07:29:28;99342.88;;;10.71;100.00
68793;BME280;55778;54.346;10.210;2023-03-31T07:31:54;99341.97;;;10.79;100.00
68793;BME280;55778;54.346;10.210;2023-03-31T07:34:19;99332.34;;;10.91;100.00
68793;BME280;55778;54.346;10.210;2023-03-31T07:36:44;99335.59;;;10.86;100.00
68793;BME280;55778;54.346;10.210;2023-03-31T07:39:10;99338.78;;;10.98;100.00
68793;BME280;55778;54.346;10.210;2023-03-31T07:41:35;99337.25;;;10.95;100.00
68793;BME280;55778;54.346;10.210;2023-03-31T07:44:02;99332.06;;;10.86;100.00
68793;BME280;55778;54.346;10.210;2023-03-31T07:46:28;99333.56;;;10.88;100.00
68793;BME280;55778;54.346;10.210;2023-03-31T07:48:54;99330.97;;;10.95;100.00
68793;BME280;55778;54.346;10.210;2023-03-31T07:51:23;99331.31;;;10.92;100.00
68793;BME280;55778;54.346;10.210;2023-03-31T07:53:49;99326.84;;;10.99;100.00
68793;BME280;55778;54.346;10.210;2023-03-31T07:56:21;99323.38;;;11.05;100.00
68793;BME280;55778;54.346;10.210;2023-03-31T07:58:47;99319.41;;;11.07;100.00
68793;BME280;55778;54.346;10.210;2023-03-31T08:01:14;99316.03;;;11.05;100.00
68793;BME280;55778;54.346;10.210;2023-03-31T08:03:41;99313.63;;;11.25;100.00
68793;BME280;55778;54.346;10.210;2023-03-31T08:06:07;99315.81;;;11.29;100.00
68793;BME280;55778;54.346;10.210;2023-03-31T08:08:33;99308.38;;;11.38;100.00
68793;BME280;55778;54.346;10.210;2023-03-31T08:10:58;99303.31;;;11.35;100.00
68793;BME280;55778;54.346;10.210;2023-03-31T08:13:24;99299.94;;;11.33;100.00
68793;BME280;55778;54.346;10.210;2023-03-31T08:15:50;99305.94;;;11.43;100.00
68793;BME280;55778;54.346;10.210;2023-03-31T08:18:16;99298.13;;;11.54;100.00
68793;BME280;55778;54.346;10.210;2023-03-31T08:20:41;99294.28;;;11.49;100.00
68793;BME280;55778;54.346;10.210;2023-03-31T08:23:07;99292.63;;;11.62;100.00
68793;BME280;55778;54.346;10.210;2023-03-31T08:25:36;99282.03;;;11.67;100.00
68793;BME280;55778;54.346;10.210;2023-03-31T08:28:01;99278.81;;;11.64;100.00
68793;BME280;55778;54.346;10.210;2023-03-31T08:30:26;99279.75;;;11.71;100.00
68793;BME280;55778;54.346;10.210;2023-03-31T08:32:52;99272.66;;;11.76;100.00
68793;BME280;55778;54.346;10.210;2023-03-31T08:35:17;99260.53;;;11.79;100.00
68793;BME280;55778;54.346;10.210;2023-03-31T08:37:43;99256.13;;;12.13;100.00
68793;BME280;55778;54.346;10.210;2023-03-31T08:40:14;99258.78;;;12.43;100.00
68793;BME280;55778;54.346;10.210;2023-03-31T08:42:44;99251.81;;;12.61;97.22
68793;BME280;55778;54.346;10.210;2023-03-31T08:48:23;99256.09;;;12.70;95.80
68793;BME280;55778;54.346;10.210;2023-03-31T08:50:53;99255.66;;;12.46;95.62
68793;BME280;55778;54.346;10.210;2023-03-31T08:56:22;99245.66;;;12.53;95.34
68793;BME280;55778;54.346;10.210;2023-03-31T08:58:51;99244.78;;;12.52;96.13
68793;BME280;55778;54.346;10.210;2023-03-31T09:01:43;99252.06;;;12.45;95.67
68793;BME280;55778;54.346;10.210;2023-03-31T09:09:51;99240.53;;;12.43;95.83
68793;BME280;55778;54.346;10.210;2023-03-31T09:15:12;99238.56;;;12.37;95.76
68793;BME280;55778;54.346;10.210;2023-03-31T09:17:46;99241.59;;;12.28;95.17
68793;BME280;55778;54.346;10.210;2023-03-31T09:29:44;99235.00;;;12.01;98.35
68793;BME280;55778;54.346;10.210;2023-03-31T09:32:23;99226.75;;;12.16;97.72
68793;BME280;55778;54.346;10.210;2023-03-31T09:34:52;99230.09;;;12.32;96.31
68793;BME280;55778;54.346;10.210;2023-03-31T09:37:21;99234.06;;;12.30;95.34
68793;BME280;55778;54.346;10.210;2023-03-31T11:59:33;99124.66;;;10.81;100.00
68793;BME280;55778;54.346;10.210;2023-03-31T12:02:03;99124.09;;;11.00;100.00
68793;BME280;55778;54.346;10.210;2023-03-31T12:04:51;99116.72;;;11.29;100.00
68793;BME280;55778;54.346;10.210;2023-03-31T12:07:51;99112.97;;;11.45;100.00
68793;BME280;55778;54.346;10.210;2023-03-31T12:10:21;99114.72;;;11.67;100.00
68793;BME280;55778;54.346;10.210;2023-03-31T12:12:51;99113.56;;;11.76;100.00
68793;BME280;55778;54.346;10.210;2023-03-31T12:15:39;99111.28;;;11.79;100.00
68793;BME280;55778;54.346;10.210;2023-03-31T12:18:21;99113.88;;;11.87;100.00
68793;BME280;55778;54.346;10.210;2023-03-31T12:20:55;99107.97;;;11.84;100.00
68793;BME280;55778;54.346;10.210;2023-03-31T12:23:24;99106.00;;;11.78;100.00
68793;BME280;55778;54.346;10.210;2023-03-31T12:26:02;99100.31;;;11.94;100.00
68793;BME280;55778;54.346;10.210;2023-03-31T12:28:33;99098.03;;;11.97;100.00
68793;BME280;55778;54.346;10.210;2023-03-31T12:31:04;99091.06;;;11.95;100.00
68793;BME280;55778;54.346;10.210;2023-03-31T12:33:33;99094.97;;;11.86;100.00
68793;BME280;55778;54.346;10.210;2023-03-31T12:39:17;99095.28;;;11.76;100.00
68793;BME280;55778;54.346;10.210;2023-03-31T12:47:52;99091.66;;;11.69;100.00
68793;BME280;55778;54.346;10.210;2023-03-31T12:55:43;99079.28;;;11.73;100.00
68793;BME280;55778;54.346;10.210;2023-03-31T13:09:01;99068.38;;;11.94;100.00
68793;BME280;55778;54.346;10.210;2023-03-31T13:14:18;99057.72;;;12.21;100.00
68793;BME280;55778;54.346;10.210;2023-03-31T13:16:46;99056.72;;;12.28;100.00
68793;BME280;55778;54.346;10.210;2023-03-31T13:19:32;99051.94;;;12.37;100.00
68793;BME280;55778;54.346;10.210;2023-03-31T13:21:59;99047.03;;;12.53;100.00
68793;BME280;55778;54.346;10.210;2023-03-31T13:24:26;99043.19;;;12.48;100.00
68793;BME280;55778;54.346;10.210;2023-03-31T13:26:53;99038.59;;;12.48;100.00
68793;BME280;55778;54.346;10.210;2023-03-31T13:34:33;99046.09;;;12.40;100.00
68793;BME280;55778;54.346;10.210;2023-03-31T13:37:15;99041.56;;;12.26;100.00
68793;BME280;55778;54.346;10.210;2023-03-31T13:40:02;99046.19;;;12.25;100.00
68793;BME280;55778;54.346;10.210;2023-03-31T14:07:48;99027.28;;;12.24;100.00
68793;BME280;55778;54.346;10.210;2023-03-31T14:10:30;99022.00;;;12.50;100.00
68793;BME280;55778;54.346;10.210;2023-03-31T14:13:14;99028.47;;;12.76;100.00
68793;BME280;55778;54.346;10.210;2023-03-31T14:15:51;99042.50;;;12.67;100.00
68793;BME280;55778;54.346;10.210;2023-03-31T14:18:23;99030.59;;;12.81;100.00
68793;BME280;55778;54.346;10.210;2023-03-31T14:26:17;99026.19;;;12.86;100.00
68793;BME280;55778;54.346;10.210;2023-03-31T14:37:32;99020.66;;;12.39;100.00
68793;BME280;55778;54.346;10.210;2023-03-31T14:40:00;99020.16;;;12.29;100.00
68793;BME280;55778;54.346;10.210;2023-03-31T14:42:30;99010.31;;;12.35;100.00
68793;BME280;55778;54.346;10.210;2023-03-31T14:45:03;99017.09;;;12.39;100.00
68793;BME280;55778;54.346;10.210;2023-03-31T14:47:29;99018.31;;;12.36;100.00
68793;BME280;55778;54.346;10.210;2023-03-31T14:50:19;99016.75;;;12.21;100.00
68793;BME280;55778;54.346;10.210;2023-03-31T14:52:49;99011.28;;;12.21;100.00
68793;BME280;55778;54.346;10.210;2023-03-31T14:55:16;99015.63;;;12.15;99.30
68793;BME280;55778;54.346;10.210;2023-03-31T14:57:44;99012.50;;;12.18;100.00
68793;BME280;55778;54.346;10.210;2023-03-31T15:00:15;99020.38;;;12.00;100.00
68793;BME280;55778;54.346;10.210;2023-03-31T15:02:43;99017.97;;;11.90;100.00
68793;BME280;55778;54.346;10.210;2023-03-31T15:05:31;99015.91;;;11.71;100.00
68793;BME280;55778;54.346;10.210;2023-03-31T15:08:01;99020.56;;;11.77;100.00
68793;BME280;55778;54.346;10.210;2023-03-31T15:10:34;99013.66;;;11.60;100.00
68793;BME280;55778;54.346;10.210;2023-03-31T15:13:05;99010.69;;;11.55;100.00
68793;BME280;55778;54.346;10.210;2023-03-31T15:15:32;99015.63;;;11.66;100.00
68793;BME280;55778;54.346;10.210;2023-03-31T15:17:57;99017.88;;;11.42;100.00
68793;BME280;55778;54.346;10.210;2023-03-31T15:20:28;99012.63;;;11.40;100.00
68793;BME280;55778;54.346;10.210;2023-03-31T15:22:55;99017.72;;;11.50;100.00
68793;BME280;55778;54.346;10.210;2023-03-31T15:25:23;99021.44;;;11.42;100.00
68793;BME280;55778;54.346;10.210;2023-03-31T15:28:00;99019.28;;;11.17;100.00
68793;BME280;55778;54.346;10.210;2023-03-31T15:30:28;99024.81;;;11.09;100.00
68793;BME280;55778;54.346;10.210;2023-03-31T15:32:54;99022.19;;;11.01;100.00
68793;BME280;55778;54.346;10.210;2023-03-31T15:35:27;99018.56;;;10.94;100.00
68793;BME280;55778;54.346;10.210;2023-03-31T15:37:56;99020.16;;;10.88;100.00
68793;BME280;55778;54.346;10.210;2023-03-31T15:41:10;99016.34;;;10.83;100.00
68793;BME280;55778;54.346;10.210;2023-03-31T15:43:30;99019.16;;;10.75;100.00
68793;BME280;55778;54.346;10.210;2023-03-31T15:46:00;99012.59;;;10.69;100.00
68793;BME280;55778;54.346;10.210;2023-03-31T15:48:35;99016.59;;;10.73;100.00
68793;BME280;55778;54.346;10.210;2023-03-31T15:51:06;99013.59;;;10.68;100.00
68793;BME280;55778;54.346;10.210;2023-03-31T15:53:47;99016.97;;;10.70;100.00
68793;BME280;55778;54.346;10.210;2023-03-31T15:59:03;99021.41;;;10.86;100.00
68793;BME280;55778;54.346;10.210;2023-03-31T16:01:36;99022.34;;;10.78;100.00
68793;BME280;55778;54.346;10.210;2023-03-31T16:04:13;99019.69;;;10.85;100.00
68793;BME280;55778;54.346;10.210;2023-03-31T16:06:56;99019.97;;;10.90;100.00
68793;BME280;55778;54.346;10.210;2023-03-31T16:09:26;99015.75;;;10.73;100.00
68793;BME280;55778;54.346;10.210;2023-03-31T16:11:58;99024.50;;;10.83;100.00
68793;BME280;55778;54.346;10.210;2023-03-31T16:14:29;99021.47;;;10.92;100.00
68793;BME280;55778;54.346;10.210;2023-03-31T16:17:12;99019.47;;;11.01;100.00
68793;BME280;55778;54.346;10.210;2023-03-31T16:19:54;99022.00;;;11.02;100.00
68793;BME280;55778;54.346;10.210;2023-03-31T16:22:25;99022.59;;;10.98;100.00
68793;BME280;55778;54.346;10.210;2023-03-31T16:24:52;99024.19;;;10.92;100.00
68793;BME280;55778;54.346;10.210;2023-03-31T16:27:17;99025.63;;;10.88;100.00
68793;BME280;55778;54.346;10.210;2023-03-31T16:29:43;99029.00;;;10.76;100.00
68793;BME280;55778;54.346;10.210;2023-03-31T16:32:17;99027.22;;;10.83;100.00
68793;BME280;55778;54.346;10.210;2023-03-31T16:34:58;99025.72;;;10.66;100.00
68793;BME280;55778;54.346;10.210;2023-03-31T16:37:24;99036.91;;;10.56;100.00
68793;BME280;55778;54.346;10.210;2023-03-31T16:39:49;99029.19;;;10.60;100.00
68793;BME280;55778;54.346;10.210;2023-03-31T16:42:15;99023.28;;;10.71;100.00
68793;BME280;55778;54.346;10.210;2023-03-31T16:44:41;99025.66;;;10.59;100.00
68793;BME280;55778;54.346;10.210;2023-03-31T16:47:06;99021.22;;;10.58;100.00
68793;BME280;55778;54.346;10.210;2023-03-31T16:49:32;99024.78;;;10.59;100.00
68793;BME280;55778;54.346;10.210;2023-03-31T16:51:57;99020.78;;;10.55;100.00
68793;BME280;55778;54.346;10.210;2023-03-31T16:54:23;99026.84;;;10.57;100.00
68793;BME280;55778;54.346;10.210;2023-03-31T16:56:48;99021.59;;;10.41;100.00
68793;BME280;55778;54.346;10.210;2023-03-31T16:59:14;99024.69;;;10.38;100.00
68793;BME280;55778;54.346;10.210;2023-03-31T17:01:39;99031.19;;;10.51;100.00
68793;BME280;55778;54.346;10.210;2023-03-31T17:04:05;99024.63;;;10.46;100.00
68793;BME280;55778;54.346;10.210;2023-03-31T17:06:31;99014.84;;;10.37;100.00
68793;BME280;55778;54.346;10.210;2023-03-31T17:08:56;99021.28;;;10.36;100.00
68793;BME280;55778;54.346;10.210;2023-03-31T17:11:22;99031.38;;;10.35;100.00
68793;BME280;55778;54.346;10.210;2023-03-31T17:13:47;99035.59;;;10.38;100.00
68793;BME280;55778;54.346;10.210;2023-03-31T17:16:14;99024.75;;;10.30;100.00
68793;BME280;55778;54.346;10.210;2023-03-31T17:18:42;99025.34;;;10.25;100.00
68793;BME280;55778;54.346;10.210;2023-03-31T17:21:09;99034.06;;;10.21;100.00
68793;BME280;55778;54.346;10.210;2023-03-31T17:23:36;99035.09;;;10.20;100.00
68793;BME280;55778;54.346;10.210;2023-03-31T17:26:03;99034.50;;;10.09;100.00
68793;BME280;55778;54.346;10.210;2023-03-31T17:28:29;99030.09;;;10.08;100.00
68793;BME280;55778;54.346;10.210;2023-03-31T17:30:55;99028.41;;;10.07;100.00
68793;BME280;55778;54.346;10.210;2023-03-31T17:33:21;99038.47;;;10.07;100.00
68793;BME280;55778;54.346;10.210;2023-03-31T17:35:47;99044.06;;;10.05;100.00
68793;BME280;55778;54.346;10.210;2023-03-31T17:38:13;99039.34;;;9.99;100.00
68793;BME280;55778;54.346;10.210;2023-03-31T17:40:39;99045.78;;;9.98;100.00
68793;BME280;55778;54.346;10.210;2023-03-31T17:43:05;99047.09;;;9.88;100.00
68793;BME280;55778;54.346;10.210;2023-03-31T17:45:30;99044.38;;;9.88;100.00
68793;BME280;55778;54.346;10.210;2023-03-31T17:47:57;99054.97;;;9.83;100.00
68793;BME280;55778;54.346;10.210;2023-03-31T17:50:23;99052.09;;;9.76;100.00